Time;durP1;ratioP1;P1;durP2;ratioP2;P2;SDS_P1;SDS_P2;PMS_P1;PMS_P2;Temp;Humidity;BMP_temperature;BMP_pressure;BME280_temperature;BME280_humidity;BME280_pressure;Samples;Min_cycle;Max_cycle;Signal;HPM_P1;HPM_P2
2021/08/21 00:01:13;;;;;;;;;19.67;18.33;;;;;;;;6491412;39;9035;-63
2021/08/21 00:07:15;;;;;;;;;22.33;22.33;;;;;;;;6491599;39;9660;-61
2021/08/21 00:13:17;;;;;;;;;23.33;22.67;;;;;;;;6491852;39;9035;-63
2021/08/21 00:19:20;;;;;;;;;17.00;15.33;;;;;;;;6490880;39;8966;-61
2021/08/21 00:25:24;;;;;;;;;21.00;21.00;;;;;;;;6491943;31;8937;-62
2021/08/21 00:31:29;;;;;;;;;27.00;23.67;;;;;;;;6492771;39;9009;-61
2021/08/21 00:37:33;;;;;;;;;19.67;19.33;;;;;;;;6492850;46;8961;-62
2021/08/21 00:43:37;;;;;;;;;23.00;20.67;;;;;;;;6494433;31;9097;-62
2021/08/21 00:49:41;;;;;;;;;22.67;22.67;;;;;;;;6492804;46;9019;-61
2021/08/21 00:55:49;;;;;;;;;30.00;27.33;;;;;;;;6493463;39;9740;-61
2021/08/21 01:01:53;;;;;;;;;25.33;25.00;;;;;;;;6492903;39;8997;-62
2021/08/21 01:07:56;;;;;;;;;27.67;26.67;;;;;;;;6494029;39;9056;-62
2021/08/21 01:14:01;;;;;;;;;31.67;25.67;;;;;;;;6491756;46;8953;-63
2021/08/21 01:20:06;;;;;;;;;28.67;28.67;;;;;;;;6491412;46;9004;-62
2021/08/21 01:26:12;;;;;;;;;36.00;31.00;;;;;;;;6492283;46;8957;-62
2021/08/21 01:32:30;;;;;;;;;32.67;30.00;;;;;;;;6491444;46;9112;-62
2021/08/21 01:38:34;;;;;;;;;30.00;30.00;;;;;;;;6493645;31;8929;-61
2021/08/21 01:44:59;;;;;;;;;32.33;29.67;;;;;;;;6491719;46;8974;-62
2021/08/21 01:51:02;;;;;;;;;26.33;24.67;;;;;;;;6491605;39;9020;-60
2021/08/21 01:57:06;;;;;;;;;26.67;26.67;;;;;;;;6492256;39;8981;-61
2021/08/21 02:03:31;;;;;;;;;31.00;28.33;;;;;;;;6491464;46;9044;-62
2021/08/21 02:09:37;;;;;;;;;30.33;29.00;;;;;;;;6492207;39;9052;-63
2021/08/21 02:15:40;;;;;;;;;29.33;27.67;;;;;;;;6492155;46;8957;-62
2021/08/21 02:21:46;;;;;;;;;33.00;28.33;;;;;;;;6490362;46;8937;-62
2021/08/21 02:27:56;;;;;;;;;24.00;22.67;;;;;;;;6490957;39;8970;-63
2021/08/21 02:33:59;;;;;;;;;31.33;30.67;;;;;;;;6492159;46;8935;-62
2021/08/21 02:40:03;;;;;;;;;31.33;28.00;;;;;;;;6491980;31;8997;-62
2021/08/21 02:46:06;;;;;;;;;32.00;29.00;;;;;;;;6491787;46;8971;-63
2021/08/21 02:52:09;;;;;;;;;41.67;36.33;;;;;;;;6492331;46;8964;-62
2021/08/21 02:58:11;;;;;;;;;35.00;32.67;;;;;;;;6491030;39;9070;-62
2021/08/21 03:04:15;;;;;;;;;33.00;32.00;;;;;;;;6491883;39;9657;-62
2021/08/21 03:10:20;;;;;;;;;29.33;28.33;;;;;;;;6491752;46;8991;-62
2021/08/21 03:16:30;;;;;;;;;33.67;30.00;;;;;;;;6490962;46;8939;-61
2021/08/21 03:22:33;;;;;;;;;31.67;29.67;;;;;;;;6492547;39;8963;-62
2021/08/21 03:28:36;;;;;;;;;34.33;30.00;;;;;;;;6490542;46;9000;-61
2021/08/21 03:34:38;;;;;;;;;33.00;29.00;;;;;;;;6491911;39;9643;-62
2021/08/21 03:40:42;;;;;;;;;35.00;31.00;;;;;;;;6491161;31;9001;-62
2021/08/21 03:46:49;;;;;;;;;27.33;27.33;;;;;;;;6490881;39;8979;-63
2021/08/21 03:52:52;;;;;;;;;32.33;29.00;;;;;;;;6491625;31;8978;-62
2021/08/21 03:58:56;;;;;;;;;30.33;28.00;;;;;;;;6490706;39;8975;-64
2021/08/21 04:04:59;;;;;;;;;28.67;27.33;;;;;;;;6495248;31;9629;-62
2021/08/21 04:11:02;;;;;;;;;27.67;24.33;;;;;;;;6493546;31;9769;-62
2021/08/21 04:17:11;;;;;;;;;25.33;25.33;;;;;;;;6492614;46;8939;-62
2021/08/21 04:23:13;;;;;;;;;24.00;23.00;;;;;;;;6493920;39;8983;-61
2021/08/21 04:29:19;;;;;;;;;30.67;28.00;;;;;;;;6492938;39;8997;-62
2021/08/21 04:35:22;;;;;;;;;28.67;24.67;;;;;;;;6493955;46;8919;-64
2021/08/21 04:41:26;;;;;;;;;24.67;24.33;;;;;;;;6493179;39;8931;-62
2021/08/21 04:47:29;;;;;;;;;31.33;27.00;;;;;;;;6492429;39;8983;-63
2021/08/21 04:53:32;;;;;;;;;22.33;21.33;;;;;;;;6493694;31;9129;-62
2021/08/21 04:59:34;;;;;;;;;24.00;22.00;;;;;;;;6492272;39;8986;-62
2021/08/21 05:05:40;;;;;;;;;24.00;24.00;;;;;;;;6493528;39;8958;-63
2021/08/21 05:11:43;;;;;;;;;28.00;26.00;;;;;;;;6492218;31;9117;-63
2021/08/21 05:17:48;;;;;;;;;25.00;25.00;;;;;;;;6491541;39;8997;-63
2021/08/21 05:24:13;;;;;;;;;23.33;23.00;;;;;;;;6492813;39;9006;-60
2021/08/21 05:30:15;;;;;;;;;23.00;23.00;;;;;;;;6492603;46;8965;-62
2021/08/21 05:36:17;;;;;;;;;28.67;25.67;;;;;;;;6493166;39;9044;-62
2021/08/21 05:42:19;;;;;;;;;22.67;19.67;;;;;;;;6492443;46;9045;-62
2021/08/21 05:48:22;;;;;;;;;20.00;20.00;;;;;;;;6492773;39;9049;-62
2021/08/21 05:54:24;;;;;;;;;20.67;20.67;;;;;;;;6493424;31;8953;-63
2021/08/21 06:00:26;;;;;;;;;23.00;18.33;;;;;;;;6492715;39;9029;-62
2021/08/21 06:06:29;;;;;;;;;20.67;20.67;;;;;;;;6492946;31;9005;-61
2021/08/21 06:12:32;;;;;;;;;27.00;24.00;;;;;;;;6491733;31;9082;-62
2021/08/21 06:18:34;;;;;;;;;20.67;20.67;;;;;;;;6492852;39;8922;-63
2021/08/21 06:24:37;;;;;;;;;23.00;22.00;;;;;;;;6492301;46;8987;-63
2021/08/21 06:30:39;;;;;;;;;22.00;22.00;;;;;;;;6491809;46;8978;-61
2021/08/21 06:36:41;;;;;;;;;19.67;19.67;;;;;;;;6493248;39;8970;-62
2021/08/21 06:42:43;;;;;;;;;25.33;22.67;;;;;;;;6491570;39;8930;-63
2021/08/21 06:48:54;;;;;;;;;22.33;20.67;;;;;;;;6491763;39;8987;-62
2021/08/21 06:54:56;;;;;;;;;25.25;24.00;;;;;;;;6492514;39;8962;-62
2021/08/21 07:00:59;;;;;;;;;21.67;21.33;;;;;;;;6491007;46;9090;-63
2021/08/21 07:07:02;;;;;;;;;23.25;23.25;;;;;;;;6492572;46;8958;-62
2021/08/21 07:13:07;;;;;;;;;21.50;19.00;;;;;;;;6492403;39;9525;-62
2021/08/21 07:19:09;;;;;;;;;17.75;16.75;;;;;;;;6492052;46;8923;-62
2021/08/21 07:25:11;;;;;;;;;17.00;17.00;;;;;;;;6492346;39;8958;-63
2021/08/21 07:31:15;;;;;;;;;19.75;19.75;;;;;;;;6491381;31;8954;-63
2021/08/21 07:37:17;;;;;;;;;14.50;13.75;;;;;;;;6491905;39;8978;-63
2021/08/21 07:43:19;;;;;;;;;17.50;16.00;;;;;;;;6491421;39;8960;-62
2021/08/21 07:49:22;;;;;;;;;15.25;14.75;;;;;;;;6492185;39;8944;-62
2021/08/21 07:55:25;;;;;;;;;14.75;14.00;;;;;;;;6493018;39;9570;-64
2021/08/21 08:01:27;;;;;;;;;18.00;17.00;;;;;;;;6490515;46;9036;-62
2021/08/21 08:07:30;;;;;;;;;22.25;20.25;;;;;;;;6492649;47;8958;-62
2021/08/21 08:13:33;;;;;;;;;14.75;14.75;;;;;;;;6536271;36;9001;-62
2021/08/21 08:19:37;;;;;;;;;12.25;12.25;;;;;;;;6489610;47;8958;-61
2021/08/21 08:25:39;;;;;;;;;14.25;12.75;;;;;;;;6489563;39;8982;-61
2021/08/21 08:31:42;;;;;;;;;16.25;15.25;;;;;;;;6490249;31;9765;-62
2021/08/21 08:37:44;;;;;;;;;19.50;16.25;;;;;;;;6489200;47;8958;-62
2021/08/21 08:43:47;;;;;;;;;12.00;12.00;;;;;;;;6488862;39;8933;-63
2021/08/21 08:49:50;;;;;;;;;15.50;15.25;;;;;;;;6491408;31;9092;-63
2021/08/21 08:55:52;;;;;;;;;18.25;16.00;;;;;;;;6491635;39;9008;-62
2021/08/21 09:01:57;;;;;;;;;14.25;12.00;;;;;;;;6491485;46;8990;-62
2021/08/21 09:07:59;;;;;;;;;12.25;12.25;;;;;;;;6491967;39;9070;-63
2021/08/21 09:14:21;;;;;;;;;15.00;14.25;;;;;;;;6490747;46;8991;-63
2021/08/21 09:20:23;;;;;;;;;12.50;12.00;;;;;;;;6490780;46;8958;-61
2021/08/21 09:26:30;;;;;;;;;14.50;14.00;;;;;;;;6491584;39;9814;-62
2021/08/21 09:32:33;;;;;;;;;13.50;13.50;;;;;;;;6491548;39;8958;-62
2021/08/21 09:38:36;;;;;;;;;16.50;16.50;;;;;;;;6491703;39;8954;-62
2021/08/21 09:44:41;;;;;;;;;16.75;16.00;;;;;;;;6491595;31;8982;-62
2021/08/21 09:50:46;;;;;;;;;17.00;13.75;;;;;;;;6491599;39;9669;-62
2021/08/21 09:56:55;;;;;;;;;14.00;13.50;;;;;;;;6491201;39;9609;-62
2021/08/21 10:02:58;;;;;;;;;14.75;14.75;;;;;;;;6490304;39;9100;-61
2021/08/21 10:09:10;;;;;;;;;17.00;13.25;;;;;;;;6490665;39;9077;-62
2021/08/21 10:15:13;;;;;;;;;23.25;18.75;;;;;;;;6490670;31;8974;-63
2021/08/21 10:21:17;;;;;;;;;17.00;17.00;;;;;;;;6491052;39;9017;-64
2021/08/21 10:27:44;;;;;;;;;17.50;15.00;;;;;;;;6491102;31;9033;-62
2021/08/21 10:33:54;;;;;;;;;14.00;14.00;;;;;;;;6491075;39;9149;-62
2021/08/21 10:39:56;;;;;;;;;17.00;17.00;;;;;;;;6490114;31;8993;-63
2021/08/21 10:46:02;;;;;;;;;16.00;16.00;;;;;;;;6490915;39;8922;-63
2021/08/21 10:52:08;;;;;;;;;15.75;15.75;;;;;;;;6537054;36;8986;-62
2021/08/21 10:58:22;;;;;;;;;16.00;16.00;;;;;;;;6490986;31;9289;-63
2021/08/21 11:04:34;;;;;;;;;15.75;15.00;;;;;;;;6490393;31;9112;-62
2021/08/21 11:10:36;;;;;;;;;18.25;18.25;;;;;;;;6490024;39;9005;-63
2021/08/21 11:17:15;;;;;;;;;14.50;14.50;;;;;;;;6490617;39;8963;-62
2021/08/21 11:23:09;;;;;;;;;19.75;18.50;;;;;;;;6489521;39;8997;-61
2021/08/21 11:29:11;;;;;;;;;23.25;21.50;;;;;;;;6490169;39;9011;-62
2021/08/21 11:35:24;;;;;;;;;14.75;14.00;;;;;;;;6490184;46;9053;-62
2021/08/21 11:41:27;;;;;;;;;14.75;14.25;;;;;;;;6489926;46;9046;-62
2021/08/21 11:47:34;;;;;;;;;15.75;15.75;;;;;;;;6489609;39;8969;-63
2021/08/21 11:53:42;;;;;;;;;15.00;15.00;;;;;;;;6489685;47;8950;-62
2021/08/21 11:59:44;;;;;;;;;15.75;15.00;;;;;;;;6490347;39;8937;-63
2021/08/21 12:05:46;;;;;;;;;15.50;15.50;;;;;;;;6490271;39;9673;-62
2021/08/21 12:11:50;;;;;;;;;18.25;18.25;;;;;;;;6489238;39;9028;-63
2021/08/21 12:17:53;;;;;;;;;16.00;16.00;;;;;;;;6489787;31;8950;-63
2021/08/21 12:23:57;;;;;;;;;16.25;14.50;;;;;;;;6490625;46;9031;-63
2021/08/21 12:30:05;;;;;;;;;16.00;16.00;;;;;;;;6492148;39;8962;-63
2021/08/21 12:36:13;;;;;;;;;19.00;17.50;;;;;;;;6491939;31;8970;-62
2021/08/21 12:42:20;;;;;;;;;18.50;18.25;;;;;;;;6492252;39;8954;-62
2021/08/21 12:48:23;;;;;;;;;20.50;19.25;;;;;;;;6491188;39;8978;-62
2021/08/21 12:54:35;;;;;;;;;14.50;14.50;;;;;;;;6491063;46;8970;-63
2021/08/21 13:00:44;;;;;;;;;21.75;20.50;;;;;;;;6492193;39;8954;-61
2021/08/21 13:06:58;;;;;;;;;23.50;18.25;;;;;;;;6491162;39;8994;-62
2021/08/21 13:13:00;;;;;;;;;18.00;18.00;;;;;;;;6491079;31;9046;-62
2021/08/21 13:19:03;;;;;;;;;14.50;14.50;;;;;;;;6491651;31;9053;-63
2021/08/21 13:25:06;;;;;;;;;18.75;17.00;;;;;;;;6538215;36;9073;-61
2021/08/21 13:31:08;;;;;;;;;16.25;15.25;;;;;;;;6489813;39;9162;-62
2021/08/21 13:37:10;;;;;;;;;19.00;19.00;;;;;;;;6490548;46;8998;-62
2021/08/21 13:43:12;;;;;;;;;18.75;18.75;;;;;;;;6490982;39;9680;-62
2021/08/21 13:49:15;;;;;;;;;21.75;18.25;;;;;;;;6491505;39;9006;-63
2021/08/21 13:55:17;;;;;;;;;16.50;16.50;;;;;;;;6490811;31;8962;-62
2021/08/21 14:01:20;;;;;;;;;13.50;13.50;;;;;;;;6490867;39;9029;-61
2021/08/21 14:07:22;;;;;;;;;18.50;16.50;;;;;;;;6490344;46;8974;-62
2021/08/21 14:13:24;;;;;;;;;15.00;12.00;;;;;;;;6491285;39;9007;-62
2021/08/21 14:19:26;;;;;;;;;18.00;16.50;;;;;;;;6490921;39;9049;-62
2021/08/21 14:25:29;;;;;;;;;16.00;15.50;;;;;;;;6491017;39;9015;-61
2021/08/21 14:31:31;;;;;;;;;21.25;17.50;;;;;;;;6490281;46;9134;-61
2021/08/21 14:37:33;;;;;;;;;18.00;16.00;;;;;;;;6489940;43;8937;-62
2021/08/21 14:43:36;;;;;;;;;18.00;18.00;;;;;;;;6490059;46;8966;-61
2021/08/21 14:49:39;;;;;;;;;17.25;17.25;;;;;;;;6490591;31;8961;-63
2021/08/21 14:55:42;;;;;;;;;18.25;16.25;;;;;;;;6490412;46;9037;-63
2021/08/21 15:01:44;;;;;;;;;17.75;14.25;;;;;;;;6490385;39;9105;-62
2021/08/21 15:07:47;;;;;;;;;16.75;15.00;;;;;;;;6490687;31;8986;-61
2021/08/21 15:13:49;;;;;;;;;20.50;17.75;;;;;;;;6490863;39;8991;-63
2021/08/21 15:19:54;;;;;;;;;16.75;16.75;;;;;;;;6490964;39;9025;-62
2021/08/21 15:26:00;;;;;;;;;19.75;19.50;;;;;;;;6491130;31;8968;-62
2021/08/21 15:32:02;;;;;;;;;18.00;18.00;;;;;;;;6490801;39;9791;-63
2021/08/21 15:38:06;;;;;;;;;21.25;21.00;;;;;;;;6489788;31;8993;-62
2021/08/21 15:44:08;;;;;;;;;19.00;19.00;;;;;;;;6489790;46;9137;-61
2021/08/21 15:50:10;;;;;;;;;21.75;18.50;;;;;;;;6489640;46;9007;-63
2021/08/21 15:56:13;;;;;;;;;26.75;26.25;;;;;;;;6489852;47;9057;-62
2021/08/21 16:02:16;;;;;;;;;18.25;18.00;;;;;;;;6489843;39;8981;-62
2021/08/21 16:08:18;;;;;;;;;20.00;20.00;;;;;;;;6490850;31;8974;-62
2021/08/21 16:14:20;;;;;;;;;20.00;18.25;;;;;;;;6489680;47;8937;-61
2021/08/21 16:20:23;;;;;;;;;22.25;20.00;;;;;;;;6490807;31;9144;-63
2021/08/21 16:26:25;;;;;;;;;19.75;18.25;;;;;;;;6490014;39;9196;-62
2021/08/21 16:32:28;;;;;;;;;23.25;21.75;;;;;;;;6489096;47;8954;-62
2021/08/21 16:38:32;;;;;;;;;25.75;25.25;;;;;;;;6489781;39;8956;-61
2021/08/21 16:44:34;;;;;;;;;22.75;22.50;;;;;;;;6489635;39;8950;-62
2021/08/21 16:50:37;;;;;;;;;20.75;20.00;;;;;;;;6489183;47;9072;-62
2021/08/21 16:56:39;;;;;;;;;23.00;22.00;;;;;;;;6488780;31;9711;-61
2021/08/21 17:02:41;;;;;;;;;23.67;22.33;;;;;;;;6490089;31;9084;-63
2021/08/21 17:08:43;;;;;;;;;26.25;25.75;;;;;;;;6490616;31;8973;-61
2021/08/21 17:14:47;;;;;;;;;27.00;24.25;;;;;;;;6491501;39;9722;-63
2021/08/21 17:20:50;;;;;;;;;24.00;24.00;;;;;;;;6491034;39;8949;-62
2021/08/21 17:26:52;;;;;;;;;28.00;25.75;;;;;;;;6491514;39;8984;-63
2021/08/21 17:32:54;;;;;;;;;35.50;30.75;;;;;;;;6491259;39;9065;-62
2021/08/21 17:39:00;;;;;;;;;29.25;28.75;;;;;;;;6490566;31;9012;-63
2021/08/21 17:45:04;;;;;;;;;30.50;29.00;;;;;;;;6491154;39;9104;-63
2021/08/21 17:51:07;;;;;;;;;31.25;29.00;;;;;;;;6490471;39;9077;-62
2021/08/21 17:57:09;;;;;;;;;29.75;29.25;;;;;;;;6491293;31;8989;-62
2021/08/21 18:03:13;;;;;;;;;34.50;33.00;;;;;;;;6490499;46;9107;-62
2021/08/21 18:09:18;;;;;;;;;30.00;30.00;;;;;;;;6490777;31;8993;-63
2021/08/21 18:15:22;;;;;;;;;41.00;36.00;;;;;;;;6490788;39;9025;-62
2021/08/21 18:21:24;;;;;;;;;36.50;34.00;;;;;;;;6490588;39;8992;-63
2021/08/21 18:27:26;;;;;;;;;44.33;40.67;;;;;;;;6490603;46;8965;-62
2021/08/21 18:33:28;;;;;;;;;47.33;42.67;;;;;;;;6490363;46;8959;-62
2021/08/21 18:39:32;;;;;;;;;48.67;41.00;;;;;;;;6491417;39;8958;-62
2021/08/21 18:45:34;;;;;;;;;46.33;42.33;;;;;;;;6491096;39;8972;-61
2021/08/21 18:51:37;;;;;;;;;37.67;33.67;;;;;;;;6491650;39;8997;-62
2021/08/21 18:57:40;;;;;;;;;35.50;33.75;;;;;;;;6489678;31;9078;-62
2021/08/21 19:03:43;;;;;;;;;37.33;32.00;;;;;;;;6489373;39;8988;-63
2021/08/21 19:09:47;;;;;;;;;33.75;32.75;;;;;;;;6489814;31;9002;-63
2021/08/21 19:15:49;;;;;;;;;28.50;27.75;;;;;;;;6522423;31;9632;-62
2021/08/21 19:21:52;;;;;;;;;32.00;30.25;;;;;;;;6490495;39;9132;-62
2021/08/21 19:27:54;;;;;;;;;26.00;25.00;;;;;;;;6490119;46;8966;-62
2021/08/21 19:33:57;;;;;;;;;28.25;27.50;;;;;;;;6489395;31;8989;-62
2021/08/21 19:39:59;;;;;;;;;30.00;28.00;;;;;;;;6489397;39;9094;-61
2021/08/21 19:46:01;;;;;;;;;27.75;26.75;;;;;;;;6489934;39;9000;-62
2021/08/21 19:52:05;;;;;;;;;28.67;27.33;;;;;;;;6489903;39;8950;-62
2021/08/21 19:58:07;;;;;;;;;25.75;24.25;;;;;;;;6490529;31;8990;-61
2021/08/21 20:04:11;;;;;;;;;27.00;25.00;;;;;;;;6489589;39;9198;-61
2021/08/21 20:10:13;;;;;;;;;32.33;29.67;;;;;;;;6489806;39;8981;-62
2021/08/21 20:16:15;;;;;;;;;27.00;25.00;;;;;;;;6490394;31;8989;-61
2021/08/21 20:22:18;;;;;;;;;32.67;31.33;;;;;;;;6491199;31;8950;-63
2021/08/21 20:28:21;;;;;;;;;26.75;25.50;;;;;;;;6489415;39;8964;-62
2021/08/21 20:34:23;;;;;;;;;27.25;27.25;;;;;;;;6490054;39;9061;-62
2021/08/21 20:40:28;;;;;;;;;36.33;31.00;;;;;;;;6490244;39;8960;-62
2021/08/21 20:46:31;;;;;;;;;32.00;29.67;;;;;;;;6491130;31;8953;-62
2021/08/21 20:52:33;;;;;;;;;32.00;32.00;;;;;;;;6490516;39;8952;-62
2021/08/21 20:58:36;;;;;;;;;39.33;36.67;;;;;;;;6491371;31;9675;-62
2021/08/21 21:04:38;;;;;;;;;42.00;37.67;;;;;;;;6491607;39;9103;-62
2021/08/21 21:10:46;;;;;;;;;44.33;40.33;;;;;;;;6491812;39;8973;-62
2021/08/21 21:16:48;;;;;;;;;44.67;37.00;;;;;;;;6491727;31;8952;-62
2021/08/21 21:22:50;;;;;;;;;43.33;35.00;;;;;;;;6491421;39;9031;-62
2021/08/21 21:28:55;;;;;;;;;40.00;33.00;;;;;;;;6491682;39;9652;-62
2021/08/21 21:34:57;;;;;;;;;37.00;35.67;;;;;;;;6491157;39;9008;-60
2021/08/21 21:41:00;;;;;;;;;40.33;36.00;;;;;;;;6490989;46;9116;-62
2021/08/21 21:47:02;;;;;;;;;41.00;36.67;;;;;;;;6491178;31;8965;-63
2021/08/21 21:53:25;;;;;;;;;43.00;36.67;;;;;;;;6491256;39;9062;-62
2021/08/21 21:59:27;;;;;;;;;39.67;33.00;;;;;;;;6489898;46;9004;-62
2021/08/21 22:05:37;;;;;;;;;39.67;37.00;;;;;;;;6491013;31;9119;-61
2021/08/21 22:11:39;;;;;;;;;42.00;36.33;;;;;;;;6490849;46;9012;-61
2021/08/21 22:17:41;;;;;;;;;36.67;33.00;;;;;;;;6492661;31;8871;-61
2021/08/21 22:23:54;;;;;;;;;32.33;29.33;;;;;;;;6491361;31;8963;-61
2021/08/21 22:29:56;;;;;;;;;32.33;29.00;;;;;;;;6490766;39;9607;-63
2021/08/21 22:35:59;;;;;;;;;24.33;24.33;;;;;;;;6490892;39;8989;-63
2021/08/21 22:42:03;;;;;;;;;29.00;27.00;;;;;;;;6489743;39;8987;-63
2021/08/21 22:48:05;;;;;;;;;23.00;19.33;;;;;;;;6490289;46;9029;-61
2021/08/21 22:54:07;;;;;;;;;27.67;25.33;;;;;;;;6490828;39;8999;-62
2021/08/21 23:00:10;;;;;;;;;30.67;28.00;;;;;;;;6490890;39;9627;-62
2021/08/21 23:06:12;;;;;;;;;35.33;28.67;;;;;;;;6535980;36;9050;-62
2021/08/21 23:12:16;;;;;;;;;38.00;28.67;;;;;;;;6490501;39;8963;-62
2021/08/21 23:18:18;;;;;;;;;30.33;30.33;;;;;;;;6489761;39;8979;-62
2021/08/21 23:24:21;;;;;;;;;32.67;31.00;;;;;;;;6490254;39;8956;-62
2021/08/21 23:30:24;;;;;;;;;33.00;29.00;;;;;;;;6490821;39;8960;-62
2021/08/21 23:36:26;;;;;;;;;38.67;30.33;;;;;;;;6490256;39;9006;-62
2021/08/21 23:42:28;;;;;;;;;31.00;29.67;;;;;;;;6490859;31;8951;-61
2021/08/21 23:48:33;;;;;;;;;32.67;29.00;;;;;;;;6491177;39;9906;-61
2021/08/21 23:54:37;;;;;;;;;32.00;28.33;;;;;;;;6490043;31;9071;-62
